Time;durP1;ratioP1;P1;durP2;ratioP2;P2;SDS_P1;SDS_P2;PMS_P1;PMS_P2;Temp;Humidity;BMP_temperature;BMP_pressure;BME280_temperature;BME280_humidity;BME280_pressure;Samples;Min_cycle;Max_cycle;Signal;HPM_P1;HPM_P2
2021/11/01 00:01:40;;;;;;;0.43;0.40;;;;;;;;;;5111339;28;20039;-86
2021/11/01 00:04:06;;;;;;;0.57;0.30;;;;;;;;;;5126782;28;20415;-86
2021/11/01 00:06:32;;;;;;;0.40;0.25;;;;;;;;;;5096102;28;20142;-87
2021/11/01 00:09:00;;;;;;;0.20;0.20;;;;;;;;;;5121611;27;20019;-87
2021/11/01 00:11:26;;;;;;;0.40;0.40;;;;;;;;;;5123354;28;20031;-86
2021/11/01 00:13:53;;;;;;;0.68;0.68;;;;;;;;;;5126003;27;20036;-86
2021/11/01 00:16:19;;;;;;;2.45;0.30;;;;;;;;;;5109422;28;20032;-86
2021/11/01 00:18:45;;;;;;;0.40;0.30;;;;;;;;;;5126005;27;20084;-86
2021/11/01 00:21:11;;;;;;;0.22;0.22;;;;;;;;;;5114769;27;20469;-85
2021/11/01 00:23:38;;;;;;;0.30;0.30;;;;;;;;;;5118097;27;20027;-86
2021/11/01 00:26:03;;;;;;;0.20;0.20;;;;;;;;;;5127037;27;20118;-86
2021/11/01 00:28:30;;;;;;;0.28;0.28;;;;;;;;;;5099247;27;20119;-86
2021/11/01 00:30:58;;;;;;;0.30;0.30;;;;;;;;;;5130129;27;20425;-87
2021/11/01 00:33:26;;;;;;;0.77;0.38;;;15.60;82.50;;;;;;5097823;28;20039;-87
2021/11/01 00:35:52;;;;;;;0.20;0.20;;;;;;;;;;5123905;27;20049;-86
2021/11/01 00:38:18;;;;;;;1.65;0.30;;;;;;;;;;5126120;27;20039;-88
2021/11/01 00:40:44;;;;;;;0.20;0.20;;;;;;;;;;5119306;27;20140;-86
2021/11/01 00:43:10;;;;;;;0.20;0.20;;;;;;;;;;5114518;27;20578;-86
2021/11/01 00:45:36;;;;;;;0.13;0.13;;;;;;;;;;5128449;27;20161;-86
2021/11/01 00:48:03;;;;;;;2.85;0.30;;;;;;;;;;5127899;27;20094;-86
2021/11/01 00:50:30;;;;;;;0.30;0.30;;;15.20;82.90;;;;;;5127229;27;20476;-87
2021/11/01 00:52:56;;;;;;;0.20;0.20;;;;;;;;;;5128600;27;20031;-87
2021/11/01 00:55:37;;;;;;;0.30;0.30;;;;;;;;;;5114850;27;20041;-87
2021/11/01 00:58:04;;;;;;;0.28;0.28;;;15.30;83.70;;;;;;5111413;27;20077;-86
2021/11/01 01:00:30;;;;;;;0.30;0.30;;;;;;;;;;5129228;27;20491;-87
2021/11/01 01:02:57;;;;;;;0.30;0.30;;;;;;;;;;5120053;27;20293;-87
2021/11/01 01:05:24;;;;;;;11.65;0.85;;;;;;;;;;5119552;27;20120;-86
2021/11/01 01:07:50;;;;;;;0.30;0.30;;;;;;;;;;5109628;28;20517;-86
2021/11/01 01:10:16;;;;;;;1.55;0.60;;;;;;;;;;5126586;27;20106;-86
2021/11/01 01:12:42;;;;;;;2.28;0.35;;;;;;;;;;5133162;27;20035;-86
2021/11/01 01:15:19;;;;;;;0.90;0.43;;;15.70;83.10;;;;;;5129379;27;20035;-87
2021/11/01 01:17:45;;;;;;;0.75;0.20;;;;;;;;;;5126190;27;20038;-86
2021/11/01 01:20:15;;;;;;;0.30;0.30;;;;;;;;;;5109608;27;20031;-86
2021/11/01 01:22:43;;;;;;;2.97;0.55;;;15.40;82.70;;;;;;5127461;27;20024;-86
2021/11/01 01:25:13;;;;;;;0.65;0.45;;;;;;;;;;5103907;27;20122;-85
2021/11/01 01:27:39;;;;;;;4.68;0.40;;;;;;;;;;5117010;27;20024;-86
2021/11/01 01:30:06;;;;;;;0.20;0.20;;;;;;;;;;5124758;27;20035;-86
2021/11/01 01:32:32;;;;;;;0.35;0.35;;;;;;;;;;5123385;27;20072;-86
2021/11/01 01:34:58;;;;;;;0.55;0.32;;;;;;;;;;5098633;27;20039;-86
2021/11/01 01:37:24;;;;;;;5.05;0.77;;;;;;;;;;5111145;27;20039;-87
2021/11/01 01:39:50;;;;;;;0.28;0.20;;;;;;;;;;5128624;27;20385;-87
2021/11/01 01:42:16;;;;;;;2.03;0.50;;;;;;;;;;5117723;27;20035;-86
2021/11/01 01:44:42;;;;;;;1.10;1.10;;;;;;;;;;5121548;27;20092;-87
2021/11/01 01:47:10;;;;;;;0.30;0.30;;;;;;;;;;5124197;27;20126;-86
2021/11/01 01:49:35;;;;;;;;;;;15.60;80.00;;;;;;5128239;27;20042;-87
2021/11/01 01:52:01;;;;;;;0.30;0.30;;;;;;;;;;5128443;27;19907;-85
2021/11/01 01:54:27;;;;;;;0.43;0.25;;;;;;;;;;5116726;27;20014;-86
2021/11/01 01:56:53;;;;;;;1.95;0.57;;;;;;;;;;5126592;27;20023;-86
2021/11/01 01:59:20;;;;;;;1.45;0.68;;;;;;;;;;5125583;27;20023;-86
2021/11/01 02:01:50;;;;;;;0.20;0.20;;;;;;;;;;5108860;28;20034;-85
2021/11/01 02:04:21;;;;;;;0.35;0.30;;;15.60;80.60;;;;;;5112481;27;20043;-86
2021/11/01 02:07:25;;;;;;;0.73;0.43;;;15.60;81.60;;;;;;5105951;28;20484;-85
2021/11/01 02:10:05;;;;;;;1.75;0.40;;;15.60;82.00;;;;;;5128200;27;20395;-86
2021/11/01 02:13:10;;;;;;;0.20;0.20;;;15.80;81.80;;;;;;5116486;27;20565;-84
2021/11/01 02:15:43;;;;;;;0.30;0.30;;;15.40;82.90;;;;;;5040011;28;20426;-87
2021/11/01 02:18:09;;;;;;;0.40;0.40;;;;;;;;;;5039841;28;20033;-87
2021/11/01 02:20:35;;;;;;;0.98;0.32;;;;;;;;;;5040742;28;20370;-86
2021/11/01 02:23:17;;;;;;;0.30;0.30;;;;;;;;;;5040201;28;20041;-87
2021/11/01 02:25:43;;;;;;;0.30;0.30;;;;;;;;;;5040915;28;20048;-86
2021/11/01 02:28:10;;;;;;;0.65;0.65;;;;;;;;;;5045313;28;20151;-86
2021/11/01 02:30:38;;;;;;;1.55;0.57;;;14.90;85.80;;;;;;5047515;28;20536;-86
2021/11/01 02:33:05;;;;;;;0.30;0.30;;;;;;;;;;5027269;28;20123;-86
2021/11/01 02:35:32;;;;;;;0.30;0.30;;;15.50;82.90;;;;;;5020700;28;20070;-86
2021/11/01 02:37:58;;;;;;;0.47;0.47;;;;;;;;;;5039787;28;20450;-86
2021/11/01 02:40:29;;;;;;;0.20;0.20;;;15.50;82.70;;;;;;5027371;28;20502;-87
2021/11/01 02:42:55;;;;;;;2.55;0.60;;;;;;;;;;5025620;28;20040;-87
2021/11/01 02:45:22;;;;;;;0.40;0.40;;;;;;;;;;5040715;28;20052;-87
2021/11/01 02:47:48;;;;;;;0.40;0.40;;;;;;;;;;5038543;28;20106;-86
2021/11/01 02:50:15;;;;;;;0.30;0.30;;;15.30;83.30;;;;;;5049065;28;20099;-87
2021/11/01 02:52:42;;;;;;;0.55;0.55;;;;;;;;;;5118349;27;20045;-86
2021/11/01 02:55:10;;;;;;;0.30;0.30;;;;;;;;;;5127719;27;20035;-86
2021/11/01 02:57:36;;;;;;;0.40;0.40;;;;;;;;;;5097510;28;20516;-88
2021/11/01 03:00:03;;;;;;;1.65;0.50;;;;;;;;;;5106215;27;20047;-87
2021/11/01 03:02:29;;;;;;;0.80;0.80;;;;;;;;;;5126928;27;20381;-87
2021/11/01 03:04:55;;;;;;;0.28;0.28;;;;;;;;;;5125490;27;20167;-87
2021/11/01 03:07:22;;;;;;;0.82;0.65;;;;;;;;;;5112613;27;20058;-86
2021/11/01 03:09:48;;;;;;;0.40;0.40;;;;;;;;;;5127116;27;20076;-86
2021/11/01 03:12:16;;;;;;;0.98;0.40;;;;;;;;;;5116987;27;20254;-86
2021/11/01 03:14:54;;;;;;;0.55;0.40;;;15.60;80.70;;;;;;5104848;27;20019;-86
2021/11/01 03:17:21;;;;;;;2.05;0.40;;;;;;;;;;5103800;28;20042;-87
2021/11/01 03:19:53;;;;;;;2.90;0.30;;;;;;;;;;5110000;28;20024;-86
2021/11/01 03:22:20;;;;;;;0.60;0.60;;;;;;;;;;5112365;27;20036;-86
2021/11/01 03:24:47;;;;;;;0.47;0.47;;;;;;;;;;5127080;27;20027;-86
2021/11/01 03:27:16;;;;;;;0.20;0.20;;;15.30;82.00;;;;;;5124812;27;20114;-87
2021/11/01 03:29:44;;;;;;;0.75;0.52;;;15.10;82.50;;;;;;5119912;27;20318;-86
2021/11/01 03:32:09;;;;;;;;;;;15.10;82.60;;;;;;5114451;27;20055;-87
2021/11/01 03:34:36;;;;;;;0.30;0.30;;;;;;;;;;5112309;27;19961;-86
2021/11/01 03:37:09;;;;;;;3.33;0.43;;;15.00;83.90;;;;;;5126375;27;20023;-85
2021/11/01 03:39:37;;;;;;;0.40;0.30;;;;;;;;;;5125913;27;20046;-87
2021/11/01 03:42:03;;;;;;;2.65;0.52;;;;;;;;;;5115888;27;20030;-87
2021/11/01 03:44:32;;;;;;;0.32;0.32;;;;;;;;;;5114977;27;20035;-86
2021/11/01 03:47:01;;;;;;;1.33;0.52;;;;;;;;;;5096270;27;20023;-86
2021/11/01 03:49:29;;;;;;;0.52;0.50;;;;;;;;;;5126221;27;20157;-87
2021/11/01 03:54:37;;;;;;;0.47;0.30;;;;;;;;;;5114567;27;20027;-86
2021/11/01 03:57:04;;;;;;;0.40;0.40;;;;;;;;;;5116211;27;20043;-87
2021/11/01 03:59:30;;;;;;;0.40;0.30;;;;;;;;;;5117080;27;20122;-86
2021/11/01 04:01:56;;;;;;;0.68;0.40;;;;;;;;;;5125192;27;20027;-86
2021/11/01 04:04:22;;;;;;;0.43;0.40;;;;;;;;;;5110895;28;20420;-86
2021/11/01 04:06:48;;;;;;;0.25;0.25;;;;;;;;;;5113203;28;20028;-85
2021/11/01 04:09:16;;;;;;;0.30;0.30;;;15.10;83.60;;;;;;5094503;28;20032;-87
2021/11/01 04:11:43;;;;;;;0.22;0.20;;;;;;;;;;5114194;28;20024;-87
2021/11/01 04:14:15;;;;;;;0.30;0.30;;;;;;;;;;5114402;28;20111;-85
2021/11/01 04:16:44;;;;;;;0.40;0.40;;;;;;;;;;5107318;28;20601;-86
2021/11/01 04:21:44;;;;;;;1.20;0.30;;;15.00;84.20;;;;;;5114274;28;20051;-87
2021/11/01 04:24:10;;;;;;;0.30;0.30;;;;;;;;;;5105704;28;20039;-88
2021/11/01 04:26:36;;;;;;;0.28;0.28;;;;;;;;;;5119095;27;20015;-87
2021/11/01 04:29:06;;;;;;;0.40;0.40;;;;;;;;;;5114266;28;20088;-86
2021/11/01 04:31:35;;;;;;;1.15;0.70;;;;;;;;;;5111411;27;20035;-86
2021/11/01 04:34:08;;;;;;;0.65;0.40;;;;;;;;;;5107843;28;20399;-86
2021/11/01 04:36:34;;;;;;;0.25;0.25;;;;;;;;;;5114041;28;20116;-87
2021/11/01 04:39:13;;;;;;;6.32;0.50;;;;;;;;;;5121470;28;20067;-85
2021/11/01 04:55:22;;;;;;;0.65;0.65;;;;;;;;;;5085265;28;20087;-87
2021/11/01 04:57:48;;;;;;;1.00;0.80;;;;;;;;;;5086305;28;20028;-86
2021/11/01 05:00:14;;;;;;;1.63;0.88;;;;;;;;;;5085638;28;20032;-86
2021/11/01 05:02:45;;;;;;;3.72;0.93;;;;;;;;;;5062468;28;20116;-86
2021/11/01 05:05:12;;;;;;;4.70;0.65;;;;;;;;;;5085182;28;20036;-86
2021/11/01 05:07:38;;;;;;;0.60;0.40;;;;;;;;;;5085255;28;20055;-86
2021/11/01 05:12:42;;;;;;;1.88;0.60;;;;;;;;;;5082769;28;20028;-86
2021/11/01 05:15:12;;;;;;;1.13;0.63;;;;;;;;;;5088440;28;20036;-87
2021/11/01 05:17:52;;;;;;;0.60;0.60;;;;;;;;;;5067563;28;20027;-86
2021/11/01 05:20:38;;;;;;;2.90;1.08;;;;;;;;;;5088813;28;20032;-86
2021/11/01 05:23:13;;;;;;;0.73;0.70;;;;;;;;;;5126655;27;20045;-86
2021/11/01 05:26:03;;;;;;;1.40;0.80;;;;;;;;;;5125256;27;20037;-86
2021/11/01 05:28:43;;;;;;;2.13;1.15;;;;;;;;;;5113906;27;20395;-86
2021/11/01 05:31:22;;;;;;;1.63;1.05;;;;;;;;;;5114073;27;20114;-86
2021/11/01 05:36:33;;;;;;;0.45;0.45;;;;;;;;;;5117427;27;20038;-86
2021/11/01 05:38:59;;;;;;;0.75;0.68;;;;;;;;;;5123812;27;20035;-86
2021/11/01 05:41:25;;;;;;;0.95;0.60;;;;;;;;;;5125973;27;20023;-87
2021/11/01 05:43:51;;;;;;;2.03;0.77;;;;;;;;;;5113041;27;20039;-86
2021/11/01 05:46:17;;;;;;;0.73;0.73;;;;;;;;;;5113882;27;20488;-85
2021/11/01 05:48:51;;;;;;;0.88;0.70;;;;;;;;;;5128334;27;20506;-86
2021/11/01 05:51:19;;;;;;;1.00;0.65;;;;;;;;;;5101393;28;20671;-86
2021/11/01 05:53:49;;;;;;;1.13;0.90;;;;;;;;;;5119092;27;20054;-86
2021/11/01 05:56:26;;;;;;;1.02;0.70;;;;;;;;;;5100453;28;20430;-86
2021/11/01 06:06:52;;;;;;;2.00;1.88;;;;;;;;;;5116630;27;20567;-86
2021/11/01 06:09:37;;;;;;;1.27;0.40;;;;;;;;;;5126045;27;20594;-86
2021/11/01 06:14:48;;;;;;;0.20;0.20;;;;;;;;;;5125028;27;20046;-87
2021/11/01 06:17:15;;;;;;;1.27;0.60;;;;;;;;;;5125045;27;20022;-86
2021/11/01 06:19:41;;;;;;;2.75;1.50;;;;;;;;;;5127798;27;20414;-86
2021/11/01 06:22:07;;;;;;;0.50;0.50;;;;;;;;;;5113035;27;20024;-86
2021/11/01 06:25:07;;;;;;;0.68;0.68;;;;;;;;;;5102215;27;20054;-86
2021/11/01 06:27:25;;;;;;;0.70;0.70;;;;;;;;;;5114428;27;20066;-86
2021/11/01 07:15:24;;;;;;;2.15;1.58;;;;;;;;;;5083490;28;20768;-86
2021/11/01 07:25:52;;;;;;;1.48;1.10;;;;;;;;;;5084621;28;20047;-86
2021/11/01 08:47:05;;;;;;;1.52;1.38;;;;;;;;;;5063491;28;20024;-89
2021/11/01 09:05:39;;;;;;;1.30;0.75;;;;;;;;;;5062799;28;20059;-87
2021/11/01 09:09:44;;;;;;;0.82;0.52;;;;;;;;;;5104087;27;20053;-86
2021/11/01 09:22:15;;;;;;;1.88;0.70;;;;;;;;;;5131211;27;20030;-89
2021/11/01 09:24:43;;;;;;;0.40;0.40;;;;;;;;;;5123865;27;20035;-88
2021/11/01 09:27:12;;;;;;;0.50;0.40;;;;;;;;;;5122544;27;20037;-89
2021/11/01 09:43:07;;;;;;;0.30;0.30;;;;;;;;;;5112891;27;20035;-90
2021/11/01 09:45:35;;;;;;;0.70;0.40;;;;;;;;;;5096556;28;20031;-89
2021/11/01 09:48:02;;;;;;;0.30;0.30;;;;;;;;;;5123990;27;20031;-89
2021/11/01 09:50:28;;;;;;;0.63;0.40;;;;;;;;;;5109250;27;20030;-89
2021/11/01 09:52:58;;;;;;;1.42;0.60;;;;;;;;;;5108904;27;20034;-89
2021/11/01 10:00:48;;;;;;;0.40;0.40;;;;;;;;;;5132273;27;20127;-89
2021/11/01 10:03:14;;;;;;;0.40;0.40;;;;;;;;;;5128387;27;20079;-88
2021/11/01 10:05:53;;;;;;;0.85;0.60;;;15.50;77.90;;;;;;5122326;27;20408;-90
2021/11/01 10:08:19;;;;;;;0.50;0.50;;;;;;;;;;5117892;27;20035;-83
2021/11/01 10:10:45;;;;;;;0.65;0.50;;;;;;;;;;5112050;27;20028;-83
2021/11/01 10:13:16;;;;;;;0.40;0.40;;;;;;;;;;5127539;27;20465;-83
2021/11/01 10:18:28;;;;;;;0.50;0.50;;;;;;;;;;5120581;27;20039;-89
2021/11/01 10:20:55;;;;;;;;;;;16.00;76.60;;;;;;5116512;27;20038;-91
2021/11/01 10:23:33;;;;;;;;;;;16.00;75.80;;;;;;5127286;27;19915;-91
2021/11/01 10:26:10;;;;;;;0.40;0.40;;;14.30;75.00;;;;;;5125858;27;19930;-92
2021/11/01 10:28:37;;;;;;;0.68;0.30;;;15.60;75.90;;;;;;5129034;27;20478;-90
2021/11/01 10:31:14;;;;;;;0.65;0.45;;;;;;;;;;5131509;27;20016;-91
2021/11/01 10:33:44;;;;;;;0.20;0.20;;;;;;;;;;5128677;27;20039;-90
2021/11/01 10:36:23;;;;;;;0.32;0.32;;;15.40;77.00;;;;;;5122228;27;20058;-90
2021/11/01 10:39:00;;;;;;;0.43;0.40;;;;;;;;;;5126237;27;20027;-92
2021/11/01 10:41:39;;;;;;;0.30;0.30;;;;;;;;;;5123007;27;20488;-91
2021/11/01 10:44:42;;;;;;;0.30;0.30;;;;;;;;;;5121157;27;20050;-89
2021/11/01 11:47:17;;;;;;;4.22;0.93;;;;;;;;;;5054321;28;20102;-90
2021/11/01 11:49:43;;;;;;;0.65;0.50;;;;;;;;;;5055472;28;20401;-89
2021/11/01 11:52:14;;;;;;;0.77;0.63;;;15.10;74.90;;;;;;5065118;28;20028;-90
2021/11/01 11:54:49;;;;;;;1.27;0.65;;;;;;;;;;5062883;28;20049;-90
2021/11/01 11:57:19;;;;;;;1.75;0.93;;;;;;;;;;5063472;28;20040;-89
2021/11/01 11:59:47;;;;;;;2.40;1.15;;;;;;;;;;5064926;28;20079;-90
2021/11/01 12:02:13;;;;;;;0.80;0.63;;;;;;;;;;5059497;28;20063;-89
2021/11/01 12:04:48;;;;;;;0.85;0.65;;;;;;;;;;5056555;28;20083;-89
2021/11/01 12:07:16;;;;;;;0.50;0.50;;;;;;;;;;5099188;28;20054;-90
2021/11/01 12:09:59;;;;;;;1.00;0.88;;;15.20;73.40;;;;;;5122234;27;20030;-92
2021/11/01 12:17:54;;;;;;;0.73;0.40;;;;;;;;;;5111782;28;20115;-90
2021/11/01 12:20:22;;;;;;;0.77;0.65;;;;;;;;;;5121985;27;20027;-90
2021/11/01 12:22:50;;;;;;;0.40;0.32;;;15.30;90.30;;;;;;5135079;27;20022;-90
2021/11/01 12:25:18;;;;;;;0.45;0.40;;;;;;;;;;5124706;27;20096;-90
2021/11/01 12:27:55;;;;;;;0.30;0.30;;;15.30;71.00;;;;;;5113931;28;20051;-89
2021/11/01 12:30:23;;;;;;;;;;;15.30;68.80;;;;;;5134204;27;20039;-90
2021/11/01 12:32:50;;;;;;;0.25;0.25;;;15.30;70.40;;;;;;5122212;27;19907;-89
2021/11/01 12:35:27;;;;;;;0.43;0.43;;;15.30;69.50;;;;;;5101536;27;20027;-90
2021/11/01 12:38:00;;;;;;;0.43;0.30;;;;;;;;;;5127624;27;20667;-87
2021/11/01 12:46:56;;;;;;;0.88;0.38;;;;;;;;;;5113017;28;20039;-88
2021/11/01 12:57:19;;;;;;;0.38;0.38;;;;;;;;;;5121833;27;20457;-89
2021/11/01 12:59:47;;;;;;;0.98;0.47;;;16.30;65.80;;;;;;5122053;27;20027;-89
2021/11/01 13:02:18;;;;;;;0.77;0.40;;;;;;;;;;5126222;27;20023;-90
2021/11/01 13:04:51;;;;;;;0.70;0.47;;;;;;;;;;5117068;27;20579;-90
2021/11/01 13:18:23;;;;;;;0.35;0.35;;;;;;;;;;5131950;27;20078;-89
2021/11/01 13:20:58;;;;;;;1.15;0.85;;;16.40;66.40;;;;;;5121284;27;20488;-89
2021/11/01 13:23:27;;;;;;;0.95;0.57;;;;;;;;;;5126450;27;20035;-90
2021/11/01 13:28:46;;;;;;;0.35;0.35;;;;;;;;;;5114424;27;20081;-90
2021/11/01 13:37:15;;;;;;;0.38;0.38;;;16.20;66.00;;;;;;5129216;27;20030;-89
2021/11/01 13:39:41;;;;;;;1.38;0.60;;;;;;;;;;5115288;27;20035;-89
2021/11/01 13:42:16;;;;;;;1.00;0.40;;;16.20;65.40;;;;;;5121855;27;20042;-90
2021/11/01 13:44:42;;;;;;;1.02;0.57;;;;;;;;;;5121307;27;20550;-91
2021/11/01 13:47:11;;;;;;;0.30;0.30;;;;;;;;;;5116077;27;20023;-90
2021/11/01 13:49:38;;;;;;;0.75;0.65;;;15.70;67.30;;;;;;5127918;27;20027;-91
2021/11/01 13:52:24;;;;;;;2.17;0.50;;;15.80;67.80;;;;;;5113853;27;20016;-90
2021/11/01 13:54:54;;;;;;;1.25;0.40;;;16.10;67.50;;;;;;5112347;28;20534;-88
2021/11/01 13:57:20;;;;;;;0.40;0.40;;;;;;;;;;5118817;27;20029;-90
2021/11/01 13:59:58;;;;;;;0.50;0.50;;;;;;;;;;5116139;27;20027;-89
2021/11/01 15:09:53;;;;;;;0.75;0.50;;;;;;;;;;5115377;27;20454;-88
2021/11/01 15:20:08;;;;;;;0.47;0.47;;;;;;;;;;5125553;27;20035;-88
2021/11/01 15:22:55;;;;;;;1.33;0.60;;;;;;;;;;5111731;27;20034;-88
2021/11/01 15:33:47;;;;;;;0.77;0.57;;;;;;;;;;5115683;27;20064;-89
2021/11/01 15:39:13;;;;;;;3.60;0.50;;;;;;;;;;5117554;27;20046;-89
2021/11/01 15:43:01;;;;;;;1.25;0.63;;;;;;;;;;5118165;27;20023;-89
2021/11/01 16:20:21;;;;;;;1.00;0.75;;;;;;;;;;5090265;28;20126;-91
2021/11/01 16:22:49;;;;;;;0.82;0.63;;;;;;;;;;5088872;28;20059;-90
2021/11/01 16:25:16;;;;;;;1.92;1.23;;;;;;;;;;5074658;28;20618;-93
2021/11/01 16:27:46;;;;;;;9.20;2.42;;;;;;;;;;5089447;28;20024;-89
2021/11/01 16:30:22;;;;;;;14.02;5.10;;;;;;;;;;5088946;28;20036;-90
2021/11/01 16:32:52;;;;;;;3.90;1.83;;;13.40;73.10;;;;;;5088744;28;20182;-90
2021/11/01 16:35:23;;;;;;;1.50;1.00;;;13.50;72.90;;;;;;5088428;28;20028;-92
2021/11/01 16:38:03;;;;;;;4.25;1.00;;;13.30;72.70;;;;;;5089211;28;20488;-91
2021/11/01 16:40:29;;;;;;;5.95;1.27;;;;;;;;;;5073307;28;20446;-91
2021/11/01 16:42:56;;;;;;;6.45;0.82;;;;;;;;;;5088188;28;20071;-91
2021/11/01 16:45:33;;;;;;;0.45;0.45;;;;;;;;;;5088834;28;20833;-91
2021/11/01 16:48:00;;;;;;;0.57;0.45;;;;;;;;;;5082897;28;20031;-89
2021/11/01 16:50:26;;;;;;;0.60;0.57;;;;;;;;;;5087121;28;20590;-91
2021/11/01 16:52:53;;;;;;;7.88;1.05;;;;;;;;;;5085563;28;20030;-88
2021/11/01 16:55:37;;;;;;;2.58;0.60;;;;;;;;;;5094926;28;20035;-90
2021/11/01 16:58:12;;;;;;;1.50;1.40;;;;;;;;;;5127311;28;20026;-90
2021/11/01 17:00:45;;;;;;;0.90;0.70;;;;;;;;;;5125827;28;20024;-89
2021/11/01 17:05:51;;;;;;;4.80;0.98;;;13.00;73.30;;;;;;5126631;27;20493;-90
2021/11/01 17:35:25;;;;;;;4.97;0.90;;;;;;;;;;5131779;27;20038;-89
2021/11/01 17:38:26;;;;;;;1.60;1.42;;;;;;;;;;5126526;27;20015;-91
2021/11/01 18:51:34;;;;;;;3.80;2.28;;;11.80;74.30;;;;;;5120009;27;20030;-90
2021/11/01 18:54:19;;;;;;;4.85;1.83;;;11.70;74.80;;;;;;5127336;27;20128;-88
2021/11/01 18:56:47;;;;;;;6.65;2.33;;;11.70;74.20;;;;;;5124932;27;20539;-91
2021/11/01 18:59:13;;;;;;;;;;;11.90;74.00;;;;;;5128800;27;20029;-91
2021/11/01 19:04:43;;;;;;;2.10;1.65;;;;;;;;;;5124919;27;20052;-90
2021/11/01 21:27:16;;;;;;;4.80;3.53;;;;;;;;;;5093751;28;20040;-93
2021/11/01 21:29:42;;;;;;;4.95;1.95;;;;;;;;;;5094009;28;20073;-92
2021/11/01 21:32:08;;;;;;;3.30;2.28;;;;;;;;;;5091192;28;20829;-93
2021/11/01 21:34:41;;;;;;;3.17;2.00;;;;;;;;;;5094466;28;20028;-93
2021/11/01 21:37:08;;;;;;;5.55;2.65;;;;;;;;;;5112139;28;20510;-93
2021/11/01 21:39:34;;;;;;;4.10;2.58;;;;;;;;;;5093322;28;20115;-93
2021/11/01 21:42:01;;;;;;;7.05;3.13;;;;;;;;;;5093072;28;20032;-93
2021/11/01 21:44:27;;;;;;;6.43;2.03;;;;;;;;;;5093343;28;20048;-93
2021/11/01 21:46:53;;;;;;;1.70;1.60;;;;;;;;;;5093734;28;20032;-91
2021/11/01 21:49:19;;;;;;;4.60;2.22;;;;;;;;;;5091463;28;20031;-92
2021/11/01 21:51:45;;;;;;;4.97;2.10;;;;;;;;;;5091880;28;20062;-93
2021/11/01 21:56:55;;;;;;;6.40;2.17;;;;;;;;;;5093789;28;20036;-92
2021/11/01 21:59:53;;;;;;;1.63;1.45;;;;;;;;;;5092051;28;20114;-92
2021/11/01 22:21:58;;;;;;;2.50;1.48;;;;;;;;;;5119434;27;20030;-91
2021/11/01 22:26:51;;;;;;;1.48;1.38;;;;;;;;;;5127376;27;20035;-90
2021/11/01 22:34:37;;;;;;;4.30;1.73;;;;;;;;;;5115382;28;20388;-93
2021/11/01 22:48:03;;;;;;;8.30;4.10;;;;;;;;;;5091464;28;20097;-91
2021/11/01 22:56:12;;;;;;;1.65;1.55;;;11.50;73.20;;;;;;5092809;28;20039;-92
2021/11/01 22:58:40;;;;;;;1.48;0.90;;;;;;;;;;5070824;28;20027;-92
2021/11/01 23:01:35;;;;;;;3.17;1.60;;;;;;;;;;5091910;28;20117;-92
2021/11/01 23:06:54;;;;;;;1.33;0.85;;;;;;;;;;5091913;28;20622;-92
2021/11/01 23:31:33;;;;;;;0.55;0.47;;;;;;;;;;5113784;28;20088;-93
2021/11/01 23:34:05;;;;;;;1.52;0.73;;;12.70;65.50;;;;;;5113579;28;20024;-92
2021/11/01 23:36:31;;;;;;;2.55;0.88;;;;;;;;;;5113710;28;20396;-93
2021/11/01 23:38:57;;;;;;;1.05;0.95;;;;;;;;;;5113167;28;20084;-91
2021/11/01 23:41:24;;;;;;;2.95;0.98;;;;;;;;;;5113584;28;20027;-93
2021/11/01 23:43:50;;;;;;;1.35;0.68;;;;;;;;;;5095573;28;20519;-92
2021/11/01 23:46:16;;;;;;;1.10;0.95;;;;;;;;;;5112793;28;20032;-92
2021/11/01 23:48:43;;;;;;;0.50;0.50;;;;;;;;;;5109502;27;20015;-91
2021/11/01 23:51:10;;;;;;;4.25;1.92;;;;;;;;;;5115227;27;20034;-92
2021/11/01 23:53:42;;;;;;;0.50;0.50;;;;;;;;;;5113412;28;20538;-94
2021/11/01 23:56:09;;;;;;;1.15;0.82;;;;;;;;;;5122718;27;20114;-92
2021/11/01 23:58:38;;;;;;;1.35;1.23;;;;;;;;;;5132583;27;20023;-93
